createdAt,value
2022-12-29T00:02:18.521Z,7.65
2022-12-29T00:04:46.575Z,7.35
2022-12-29T00:07:14.410Z,8.10
2022-12-29T00:09:42.355Z,8.30
2022-12-29T00:12:10.199Z,10.02
2022-12-29T00:14:56.721Z,11.02
2022-12-29T00:17:26.159Z,12.30
2022-12-29T00:20:12.724Z,8.93
2022-12-29T00:23:00.197Z,7.05
2022-12-29T00:25:47.036Z,7.85
2022-12-29T00:28:33.318Z,6.80
2022-12-29T00:31:20.848Z,8.20
2022-12-29T00:34:08.849Z,6.05
2022-12-29T00:36:39.964Z,9.65
2022-12-29T00:39:32.735Z,8.20
2022-12-29T00:42:40.378Z,8.50
2022-12-29T00:45:08.816Z,7.93
2022-12-29T00:47:36.590Z,7.18
2022-12-29T00:50:06.735Z,8.82
2022-12-29T00:52:34.920Z,7.53
2022-12-29T00:55:02.866Z,7.32
2022-12-29T00:57:30.709Z,9.00
2022-12-29T00:59:58.516Z,9.18
2022-12-29T01:02:26.462Z,7.45
2022-12-29T01:04:54.503Z,10.25
2022-12-29T01:07:23.689Z,8.25
2022-12-29T01:10:10.547Z,8.68
2022-12-29T01:12:46.181Z,9.93
2022-12-29T01:15:16.343Z,7.28
2022-12-29T01:17:44.454Z,9.18
2022-12-29T01:20:13.471Z,8.45
2022-12-29T01:22:44.955Z,8.13
2022-12-29T01:25:12.824Z,6.63
2022-12-29T01:27:40.606Z,8.68
2022-12-29T01:30:09.702Z,10.88
2022-12-29T01:32:37.542Z,8.82
2022-12-29T01:35:06.201Z,8.88
2022-12-29T01:37:36.139Z,8.93
2022-12-29T01:40:06.641Z,7.72
2022-12-29T01:42:35.135Z,7.60
2022-12-29T01:45:04.661Z,9.00
2022-12-29T01:47:37.266Z,8.98
2022-12-29T01:50:10.099Z,7.85
2022-12-29T01:52:43.962Z,7.82
2022-12-29T01:55:14.143Z,8.40
2022-12-29T01:57:45.529Z,10.38
2022-12-29T02:00:15.475Z,7.70
2022-12-29T02:02:47.502Z,8.38
2022-12-29T02:05:21.332Z,8.02
2022-12-29T02:07:51.437Z,7.65
2022-12-29T02:10:21.918Z,7.55
2022-12-29T02:12:49.820Z,8.10
2022-12-29T02:15:19.020Z,6.78
2022-12-29T02:18:04.638Z,6.35
2022-12-29T02:20:51.857Z,6.80
2022-12-29T02:23:55.317Z,6.97
2022-12-29T02:26:46.309Z,7.68
2022-12-29T02:29:44.745Z,6.95
2022-12-29T02:32:22.169Z,7.90
2022-12-29T02:34:59.879Z,8.55
2022-12-29T02:37:40.452Z,9.45
2022-12-29T02:40:18.718Z,11.23
2022-12-29T02:42:52.113Z,7.10
2022-12-29T02:45:28.108Z,7.88
2022-12-29T02:48:05.669Z,7.72
2022-12-29T02:50:38.079Z,6.72
2022-12-29T02:53:10.131Z,7.65
2022-12-29T02:55:38.268Z,8.25
2022-12-29T02:58:17.975Z,7.47
2022-12-29T03:01:00.298Z,6.55
2022-12-29T03:03:45.058Z,5.97
2022-12-29T03:06:32.108Z,5.90
2022-12-29T03:09:18.903Z,5.82
2022-12-29T03:12:10.918Z,5.82
2022-12-29T03:15:10.147Z,6.45
2022-12-29T03:17:47.063Z,5.72
2022-12-29T03:20:21.917Z,6.78
2022-12-29T03:22:56.668Z,8.15
2022-12-29T03:25:31.057Z,8.02
2022-12-29T03:28:03.565Z,6.30
2022-12-29T03:30:37.209Z,7.07
2022-12-29T03:33:10.299Z,6.55
2022-12-29T03:35:44.217Z,8.43
2022-12-29T03:38:18.386Z,5.40
2022-12-29T03:40:51.574Z,6.97
2022-12-29T03:43:20.447Z,7.07
2022-12-29T03:45:50.137Z,6.40
2022-12-29T03:48:19.409Z,5.25
2022-12-29T03:50:49.949Z,8.07
2022-12-29T03:53:19.006Z,5.95
2022-12-29T03:55:46.928Z,6.95
2022-12-29T03:58:15.117Z,7.35
2022-12-29T04:01:07.746Z,5.80
2022-12-29T04:03:39.210Z,7.35
2022-12-29T04:06:09.351Z,6.35
2022-12-29T04:08:44.631Z,5.22
2022-12-29T04:11:13.105Z,5.90
2022-12-29T04:13:42.199Z,7.20
2022-12-29T04:16:12.981Z,6.68
2022-12-29T04:18:41.058Z,7.35
2022-12-29T04:21:10.891Z,6.72
2022-12-29T04:23:41.873Z,6.93
2022-12-29T04:26:11.527Z,8.32
2022-12-29T04:29:02.221Z,7.35
2022-12-29T04:31:41.299Z,8.40
2022-12-29T04:34:09.600Z,6.85
2022-12-29T04:36:40.920Z,6.22
2022-12-29T04:39:09.321Z,6.32
2022-12-29T04:41:39.980Z,5.57
2022-12-29T04:44:11.319Z,8.30
2022-12-29T04:46:57.157Z,5.60
2022-12-29T04:49:43.931Z,8.10
2022-12-29T04:52:32.452Z,7.68
2022-12-29T04:55:00.658Z,9.38
2022-12-29T04:57:28.981Z,5.07
2022-12-29T05:00:00.253Z,5.10
2022-12-29T05:02:28.603Z,5.60
2022-12-29T05:04:57.992Z,6.28
2022-12-29T05:07:27.280Z,5.60
2022-12-29T05:09:58.289Z,6.97
2022-12-29T05:12:26.620Z,7.55
2022-12-29T05:14:59.743Z,6.93
2022-12-29T05:17:27.961Z,6.93
2022-12-29T05:19:56.001Z,6.22
2022-12-29T05:22:24.481Z,6.72
2022-12-29T05:24:52.710Z,6.63
2022-12-29T05:27:23.616Z,4.90
2022-12-29T05:30:23.831Z,7.00
2022-12-29T05:32:52.122Z,7.00
2022-12-29T05:35:20.420Z,5.15
2022-12-29T05:37:49.031Z,4.78
2022-12-29T05:40:17.140Z,5.68
2022-12-29T05:42:47.358Z,7.65
2022-12-29T05:45:34.718Z,5.30
2022-12-29T05:48:22.998Z,7.88
2022-12-29T05:51:11.980Z,5.40
2022-12-29T05:53:51.377Z,5.45
2022-12-29T05:56:19.685Z,8.98
2022-12-29T05:58:56.187Z,6.25
2022-12-29T06:01:24.915Z,5.10
2022-12-29T06:03:53.282Z,6.72
2022-12-29T06:06:22.392Z,5.32
2022-12-29T06:08:50.820Z,5.80
2022-12-29T06:11:20.550Z,5.43
2022-12-29T06:13:55.619Z,8.55
2022-12-29T06:16:25.017Z,7.15
2022-12-29T06:18:56.708Z,6.10
2022-12-29T06:21:24.979Z,7.82
2022-12-29T06:23:52.949Z,5.82
2022-12-29T06:26:22.230Z,7.97
2022-12-29T06:28:50.378Z,7.88
2022-12-29T06:31:20.018Z,6.95
2022-12-29T06:33:50.254Z,7.30
2022-12-29T06:36:19.014Z,6.25
2022-12-29T06:38:47.156Z,6.50
2022-12-29T06:41:15.273Z,10.20
2022-12-29T06:44:09.418Z,7.80
2022-12-29T06:46:52.519Z,5.63
2022-12-29T06:49:20.611Z,6.68
2022-12-29T06:51:48.542Z,5.75
2022-12-29T06:54:16.558Z,6.40
2022-12-29T06:56:45.329Z,6.25
2022-12-29T06:59:13.349Z,6.15
2022-12-29T07:01:41.391Z,8.63
2022-12-29T07:04:10.889Z,7.28
2022-12-29T07:06:38.802Z,6.95
2022-12-29T07:09:06.849Z,7.68
2022-12-29T07:11:35.749Z,8.48
2022-12-29T07:14:04.751Z,6.55
2022-12-29T07:16:34.027Z,8.25
2022-12-29T07:19:02.208Z,6.55
2022-12-29T07:21:31.850Z,5.68
2022-12-29T07:23:59.891Z,7.60
2022-12-29T07:26:32.912Z,8.45
2022-12-29T07:29:04.912Z,6.25
2022-12-29T07:31:33.112Z,6.13
2022-12-29T07:34:01.229Z,6.05
2022-12-29T07:36:34.365Z,7.05
2022-12-29T07:39:02.830Z,6.00
2022-12-29T07:41:31.180Z,5.60
2022-12-29T07:44:02.942Z,6.00
2022-12-29T07:46:57.419Z,6.65
2022-12-29T07:49:26.013Z,5.47
2022-12-29T07:51:55.916Z,5.07
2022-12-29T07:54:24.557Z,5.88
2022-12-29T07:56:52.783Z,4.25
2022-12-29T07:59:21.149Z,5.63
2022-12-29T08:01:49.170Z,4.25
2022-12-29T08:04:17.412Z,4.72
2022-12-29T08:06:46.763Z,5.82
2022-12-29T08:09:22.092Z,6.60
2022-12-29T08:11:51.254Z,4.97
2022-12-29T08:14:20.153Z,8.43
2022-12-29T08:16:48.237Z,5.63
2022-12-29T08:19:16.446Z,5.30
2022-12-29T08:21:44.613Z,7.57
2022-12-29T08:24:12.796Z,6.30
2022-12-29T08:26:42.416Z,7.20
2022-12-29T08:29:25.357Z,6.18
2022-12-29T08:31:53.612Z,5.68
2022-12-29T08:34:21.619Z,7.13
2022-12-29T08:36:50.008Z,6.13
2022-12-29T08:39:18.337Z,6.18
2022-12-29T08:41:47.872Z,4.93
2022-12-29T08:44:15.809Z,5.13
2022-12-29T08:46:44.079Z,6.28
2022-12-29T08:49:12.130Z,7.57
2022-12-29T08:51:41.018Z,5.60
2022-12-29T08:54:09.121Z,9.18
2022-12-29T08:56:37.202Z,7.82
2022-12-29T08:59:07.319Z,5.88
2022-12-29T09:01:37.688Z,6.15
2022-12-29T09:04:15.631Z,7.85
2022-12-29T09:06:45.391Z,6.32
2022-12-29T09:09:13.983Z,5.65
2022-12-29T09:11:42.538Z,6.25
2022-12-29T09:14:12.377Z,5.05
2022-12-29T09:17:00.085Z,6.45
2022-12-29T09:21:55.686Z,5.95
2022-12-29T09:24:23.858Z,4.30
2022-12-29T09:26:52.035Z,5.80
2022-12-29T09:29:21.786Z,4.90
2022-12-29T09:31:49.925Z,6.45
2022-12-29T09:34:18.106Z,5.68
2022-12-29T09:36:46.087Z,5.35
2022-12-29T09:39:14.657Z,4.18
2022-12-29T09:41:50.351Z,4.57
2022-12-29T09:44:27.732Z,5.28
2022-12-29T09:46:58.088Z,5.07
2022-12-29T09:49:30.249Z,5.05
2022-12-29T09:52:05.676Z,7.22
2022-12-29T09:54:54.927Z,5.38
2022-12-29T09:57:31.142Z,4.00
2022-12-29T10:00:06.150Z,4.35
2022-12-29T10:02:44.307Z,4.57
2022-12-29T10:05:28.827Z,6.13
2022-12-29T10:08:17.765Z,6.20
2022-12-29T10:10:55.780Z,3.72
2022-12-29T10:13:35.928Z,4.57
2022-12-29T10:16:13.338Z,5.07
2022-12-29T10:19:06.976Z,4.53
2022-12-29T10:22:01.115Z,6.35
2022-12-29T10:24:32.540Z,5.00
2022-12-29T10:27:01.506Z,6.68
2022-12-29T10:29:36.347Z,6.30
2022-12-29T10:32:11.872Z,7.03
2022-12-29T10:34:44.039Z,6.78
2022-12-29T10:37:27.488Z,5.63
2022-12-29T10:39:59.667Z,5.68
2022-12-29T10:42:29.728Z,5.80
2022-12-29T10:45:00.164Z,6.43
2022-12-29T10:47:35.872Z,6.40
2022-12-29T10:50:04.719Z,4.20
2022-12-29T10:52:35.149Z,6.80
2022-12-29T10:55:09.688Z,5.45
2022-12-29T10:57:42.103Z,8.43
2022-12-29T11:00:14.507Z,7.38
2022-12-29T11:03:04.054Z,8.20
2022-12-29T11:05:37.731Z,4.82
2022-12-29T11:08:12.280Z,7.03
2022-12-29T11:10:42.315Z,6.60
2022-12-29T11:13:16.248Z,6.85
2022-12-29T11:15:46.185Z,6.65
2022-12-29T11:18:24.353Z,5.97
2022-12-29T11:20:54.765Z,5.75
2022-12-29T11:23:26.708Z,6.30
2022-12-29T11:26:22.677Z,6.63
2022-12-29T11:29:22.338Z,4.55
2022-12-29T11:31:52.028Z,6.47
2022-12-29T11:34:24.845Z,5.28
2022-12-29T11:36:54.952Z,6.43
2022-12-29T11:39:35.544Z,3.38
2022-12-29T11:42:05.194Z,8.52
2022-12-29T11:44:49.565Z,6.28
2022-12-29T11:47:28.358Z,4.05
2022-12-29T11:50:00.783Z,3.60
2022-12-29T11:52:34.439Z,3.70
2022-12-29T11:55:04.640Z,5.03
2022-12-29T11:57:35.806Z,4.03
2022-12-29T12:00:15.691Z,3.80
2022-12-29T12:02:51.411Z,4.35
2022-12-29T12:05:29.574Z,6.20
2022-12-29T12:08:03.718Z,4.10
2022-12-29T12:10:39.798Z,5.63
2022-12-29T12:13:19.918Z,2.22
2022-12-29T12:15:56.725Z,2.50
2022-12-29T12:18:39.091Z,6.88
2022-12-29T12:21:17.197Z,3.30
2022-12-29T12:24:19.574Z,4.25
2022-12-29T12:26:58.418Z,3.30
2022-12-29T12:29:33.037Z,4.15
2022-12-29T12:32:06.927Z,4.25
2022-12-29T12:34:39.636Z,3.00
2022-12-29T12:37:28.963Z,3.75
2022-12-29T12:40:22.977Z,5.28
2022-12-29T12:42:59.779Z,4.10
2022-12-29T12:45:44.340Z,2.13
2022-12-29T12:48:29.638Z,4.50
2022-12-29T12:51:04.960Z,4.82
2022-12-29T12:53:50.013Z,2.78
2022-12-29T12:56:50.491Z,2.72
2022-12-29T12:59:34.675Z,4.45
2022-12-29T13:02:17.440Z,3.72
2022-12-29T13:05:04.624Z,2.58
2022-12-29T13:10:26.502Z,3.80
2022-12-29T13:13:06.262Z,4.25
2022-12-29T13:15:48.605Z,3.47
2022-12-29T13:18:27.171Z,1.98
2022-12-29T13:21:01.729Z,5.38
2022-12-29T13:23:37.686Z,5.30
2022-12-29T13:26:14.973Z,5.68
2022-12-29T13:28:54.187Z,4.05
2022-12-29T13:31:30.132Z,2.33
2022-12-29T13:34:04.420Z,2.38
2022-12-29T13:36:38.770Z,6.93
2022-12-29T13:39:20.552Z,4.25
2022-12-29T13:41:53.380Z,5.97
2022-12-29T13:44:26.367Z,2.80
2022-12-29T13:46:55.571Z,4.97
2022-12-29T13:49:27.336Z,4.60
2022-12-29T13:51:58.089Z,5.05
2022-12-29T13:54:38.059Z,3.03
2022-12-29T13:57:14.312Z,5.07
2022-12-29T13:59:52.381Z,3.97
2022-12-29T14:02:29.550Z,3.85
2022-12-29T14:05:00.422Z,5.10
2022-12-29T14:07:29.592Z,4.60
2022-12-29T14:09:58.651Z,5.97
2022-12-29T14:12:39.019Z,27.23
2022-12-29T14:15:23.668Z,16.90
2022-12-29T14:18:07.511Z,6.57
2022-12-29T14:20:36.012Z,11.07
2022-12-29T14:23:19.158Z,14.40
2022-12-29T14:26:10.574Z,15.63
2022-12-29T14:28:41.524Z,9.70
2022-12-29T14:31:42.131Z,5.13
2022-12-29T14:34:30.224Z,3.83
2022-12-29T14:36:59.894Z,3.03
2022-12-29T14:39:35.567Z,3.50
2022-12-29T14:42:06.724Z,3.10
2022-12-29T14:44:47.315Z,3.58
2022-12-29T14:47:21.188Z,4.53
2022-12-29T14:49:49.448Z,5.13
2022-12-29T14:52:21.431Z,3.30
2022-12-29T14:54:55.343Z,3.53
2022-12-29T14:57:36.686Z,3.35
2022-12-29T15:00:16.437Z,6.40
2022-12-29T15:02:48.874Z,4.75
2022-12-29T15:05:30.875Z,3.60
2022-12-29T15:08:00.226Z,5.35
2022-12-29T15:10:33.771Z,3.53
2022-12-29T15:13:06.215Z,5.97
2022-12-29T15:15:40.099Z,5.75
2022-12-29T15:18:21.519Z,4.95
2022-12-29T15:20:54.447Z,4.00
2022-12-29T15:23:22.901Z,4.88
2022-12-29T15:25:55.510Z,2.15
2022-12-29T15:28:24.482Z,2.88
2022-12-29T15:30:55.835Z,4.22
2022-12-29T15:33:25.364Z,6.15
2022-12-29T15:35:55.056Z,5.55
2022-12-29T15:38:32.252Z,5.18
2022-12-29T15:41:05.212Z,6.57
2022-12-29T15:43:47.590Z,5.30
2022-12-29T15:46:17.704Z,6.57
2022-12-29T15:48:45.766Z,3.25
2022-12-29T15:51:21.526Z,4.93
2022-12-29T15:54:04.677Z,8.60
2022-12-29T15:56:34.167Z,7.40
2022-12-29T15:59:02.578Z,7.38
2022-12-29T16:01:34.461Z,6.60
2022-12-29T16:04:10.435Z,8.80
2022-12-29T16:06:39.567Z,9.95
2022-12-29T16:09:15.990Z,22.92
2022-12-29T16:11:48.397Z,12.30
2022-12-29T16:14:19.889Z,11.07
2022-12-29T16:16:51.829Z,8.60
2022-12-29T16:19:24.638Z,6.13
2022-12-29T16:21:52.856Z,8.95
2022-12-29T16:24:23.077Z,6.72
2022-12-29T16:26:53.549Z,9.32
2022-12-29T16:29:23.117Z,10.18
2022-12-29T16:32:01.680Z,6.50
2022-12-29T16:34:32.990Z,8.32
2022-12-29T16:37:02.870Z,10.90
2022-12-29T16:39:34.139Z,6.57
2022-12-29T16:42:02.931Z,10.13
2022-12-29T16:44:32.154Z,7.10
2022-12-29T16:47:22.010Z,9.65
2022-12-29T16:49:55.309Z,11.63
2022-12-29T16:52:26.958Z,10.18
2022-12-29T16:54:57.701Z,10.85
2022-12-29T16:57:29.192Z,12.73
2022-12-29T17:00:01.058Z,10.80
2022-12-29T17:02:33.791Z,8.57
2022-12-29T17:05:01.907Z,14.00
2022-12-29T17:07:29.998Z,13.38
2022-12-29T17:09:58.038Z,12.13
2022-12-29T17:12:28.945Z,13.45
2022-12-29T17:14:59.284Z,12.88
2022-12-29T17:17:34.097Z,10.88
2022-12-29T17:20:05.453Z,11.63
2022-12-29T17:22:34.347Z,12.93
2022-12-29T17:25:03.935Z,10.05
2022-12-29T17:27:36.347Z,14.00
2022-12-29T17:30:10.681Z,14.70
2022-12-29T17:32:40.648Z,18.95
2022-12-29T17:35:14.777Z,12.13
2022-12-29T17:37:43.065Z,7.15
2022-12-29T17:40:16.885Z,6.20
2022-12-29T17:42:46.629Z,7.75
2022-12-29T17:45:17.112Z,19.33
2022-12-29T17:47:47.046Z,9.13
2022-12-29T17:50:16.425Z,8.30
2022-12-29T17:52:52.986Z,7.53
2022-12-29T17:57:49.437Z,8.90
2022-12-29T18:00:19.710Z,12.63
2022-12-29T18:02:49.806Z,15.45
2022-12-29T18:05:21.900Z,15.73
2022-12-29T18:07:51.524Z,19.20
2022-12-29T18:10:20.049Z,13.20
2022-12-29T18:12:50.043Z,14.38
2022-12-29T18:15:21.650Z,17.30
2022-12-29T18:17:56.043Z,20.40
2022-12-29T18:20:24.509Z,15.05
2022-12-29T18:22:52.955Z,16.05
2022-12-29T18:25:25.857Z,14.95
2022-12-29T18:27:54.435Z,17.15
2022-12-29T18:30:22.858Z,16.38
2022-12-29T18:32:52.976Z,12.93
2022-12-29T18:35:27.474Z,13.93
2022-12-29T18:37:56.047Z,15.95
2022-12-29T18:40:24.468Z,14.60
2022-12-29T18:42:53.074Z,14.27
2022-12-29T18:45:23.456Z,17.00
2022-12-29T18:47:53.497Z,17.75
2022-12-29T18:50:22.215Z,17.13
2022-12-29T18:52:50.887Z,18.48
2022-12-29T18:55:21.949Z,19.27
2022-12-29T18:57:50.920Z,18.50
2022-12-29T19:00:21.366Z,22.95
2022-12-29T19:02:50.759Z,20.92
2022-12-29T19:05:26.603Z,18.10
2022-12-29T19:07:55.710Z,19.55
2022-12-29T19:10:26.439Z,18.05
2022-12-29T19:12:55.105Z,17.98
2022-12-29T19:15:25.881Z,18.65
2022-12-29T19:18:41.183Z,15.40
2022-12-29T19:20:47.519Z,16.45
2022-12-29T19:23:17.754Z,17.00
2022-12-29T19:25:46.909Z,16.33
2022-12-29T19:28:18.932Z,22.55
2022-12-29T19:30:51.864Z,23.02
2022-12-29T19:33:22.654Z,19.38
2022-12-29T19:35:52.900Z,21.20
2022-12-29T19:38:21.449Z,20.00
2022-12-29T19:40:51.264Z,19.55
2022-12-29T19:43:20.282Z,18.35
2022-12-29T19:45:48.618Z,16.25
2022-12-29T19:48:21.732Z,13.32
2022-12-29T19:50:51.659Z,17.25
2022-12-29T19:53:21.272Z,20.02
2022-12-29T19:56:12.426Z,20.65
2022-12-29T19:58:45.219Z,18.92
2022-12-29T20:01:16.849Z,20.95
2022-12-29T20:03:45.616Z,19.63
2022-12-29T20:06:16.076Z,19.10
2022-12-29T20:08:45.234Z,23.48
2022-12-29T20:11:14.933Z,17.48
2022-12-29T20:13:44.420Z,22.77
2022-12-29T20:16:15.100Z,19.90
2022-12-29T20:18:44.748Z,20.30
2022-12-29T20:21:16.342Z,18.23
2022-12-29T20:23:45.448Z,17.85
2022-12-29T20:26:19.352Z,14.40
2022-12-29T20:28:48.018Z,15.85
2022-12-29T20:31:20.359Z,15.15
2022-12-29T20:33:49.311Z,15.38
2022-12-29T20:36:22.387Z,19.75
2022-12-29T20:38:52.270Z,19.10
2022-12-29T20:41:20.792Z,16.83
2022-12-29T20:43:49.420Z,13.48
2022-12-29T20:46:21.396Z,16.15
2022-12-29T20:48:51.348Z,14.35
2022-12-29T20:51:21.861Z,19.00
2022-12-29T20:53:50.592Z,15.63
2022-12-29T20:56:21.212Z,17.65
2022-12-29T20:59:25.935Z,19.85
2022-12-29T21:01:39.437Z,21.95
2022-12-29T21:04:07.645Z,20.17
2022-12-29T21:06:38.148Z,19.92
2022-12-29T21:09:07.151Z,17.95
2022-12-29T21:11:35.413Z,15.23
2022-12-29T21:14:04.113Z,18.27
2022-12-29T21:16:32.760Z,17.55
2022-12-29T21:19:01.228Z,19.42
2022-12-29T21:21:29.549Z,15.82
2022-12-29T21:24:05.856Z,15.90
2022-12-29T21:26:34.507Z,13.07
2022-12-29T21:31:48.528Z,13.93
2022-12-29T21:34:16.910Z,11.75
2022-12-29T21:36:45.435Z,14.90
2022-12-29T21:39:16.944Z,10.93
2022-12-29T21:41:45.277Z,13.43
2022-12-29T21:44:32.361Z,14.65
2022-12-29T21:47:01.328Z,14.10
2022-12-29T21:49:29.855Z,16.15
2022-12-29T21:51:58.178Z,15.75
2022-12-29T21:54:47.502Z,19.85
2022-12-29T21:57:37.610Z,11.23
2022-12-29T22:00:26.064Z,11.50
2022-12-29T22:03:20.056Z,10.55
2022-12-29T22:06:09.166Z,11.32
2022-12-29T22:08:56.271Z,13.13
2022-12-29T22:14:13.487Z,10.07
2022-12-29T22:16:41.457Z,11.40
2022-12-29T22:19:10.981Z,10.90
2022-12-29T22:21:51.674Z,7.68
2022-12-29T22:24:19.760Z,10.75
2022-12-29T22:26:48.905Z,10.80
2022-12-29T22:29:16.893Z,12.25
2022-12-29T22:31:44.865Z,9.85
2022-12-29T22:34:14.343Z,7.50
2022-12-29T22:36:42.261Z,8.18
2022-12-29T22:39:10.780Z,8.55
2022-12-29T22:41:38.718Z,7.57
2022-12-29T22:44:08.405Z,8.75
2022-12-29T22:46:36.403Z,8.98
2022-12-29T22:49:04.361Z,8.43
2022-12-29T22:51:32.257Z,9.00
2022-12-29T22:54:00.255Z,8.90
2022-12-29T22:56:28.276Z,8.48
2022-12-29T22:58:56.440Z,7.38
2022-12-29T23:01:25.929Z,8.85
2022-12-29T23:04:01.062Z,11.23
2022-12-29T23:06:42.154Z,7.55
2022-12-29T23:09:15.724Z,6.75
2022-12-29T23:11:43.994Z,5.43
2022-12-29T23:14:12.080Z,6.25
2022-12-29T23:16:41.718Z,5.55
2022-12-29T23:19:10.457Z,5.97
2022-12-29T23:21:38.583Z,5.68
2022-12-29T23:24:07.387Z,4.55
2022-12-29T23:26:37.933Z,5.55
2022-12-29T23:29:08.364Z,4.13
2022-12-29T23:31:37.174Z,4.75
2022-12-29T23:34:08.217Z,6.05
2022-12-29T23:36:36.693Z,3.97
2022-12-29T23:39:05.147Z,3.72
2022-12-29T23:41:33.166Z,3.85
2022-12-29T23:44:01.043Z,5.68
2022-12-29T23:46:31.449Z,5.93
2022-12-29T23:49:00.276Z,3.33
2022-12-29T23:51:29.776Z,5.03
2022-12-29T23:53:57.861Z,3.95
2022-12-29T23:56:25.844Z,5.55
2022-12-29T23:58:53.903Z,5.60
